San Pablo, Colorado
Current Conditions -  °F | °C
As of 8:52 AM on Wednesday 28 Jan 2015 (Local Time) from KALS Reporting Station
Clear Clear  
Wind Chill: 26°   Ceiling: Unl
Heat Index: 31°   Visibility: 10mi
Dew Point: 22°   Wind: 5mph
Humidity: 69%   Direction: 220°SW
Pressure: 30.26"   Gusts: NA
Location:  37.15°N, 105.4°W
Report Text: KALS 281552Z AUTO 22004KT 10SM CLR M01/M06 A3026 RMK AO2 SLP269 T10061056
Loading
Personal Weather Stations






























Interactive Weather Map New forecast layout! Learn more

10-Day Weather Forecast

Advertisements
Track Severe Weather on mobile